sensor_id;sensor_type;location;lat;lon;timestamp;P1;durP1;ratioP1;P2;durP2;ratioP2
53421;SDS011;39319;52.944;5.928;2022-07-24T00:00:38;7.53;;;5.40;;
53421;SDS011;39319;52.944;5.928;2022-07-24T00:03:05;7.80;;;5.68;;
53421;SDS011;39319;52.944;5.928;2022-07-24T00:05:31;8.07;;;5.77;;
53421;SDS011;39319;52.944;5.928;2022-07-24T00:07:56;6.83;;;5.47;;
53421;SDS011;39319;52.944;5.928;2022-07-24T00:10:22;7.88;;;5.35;;
53421;SDS011;39319;52.944;5.928;2022-07-24T00:12:48;7.70;;;5.72;;
53421;SDS011;39319;52.944;5.928;2022-07-24T00:15:14;8.48;;;5.75;;
53421;SDS011;39319;52.944;5.928;2022-07-24T00:17:39;7.68;;;5.30;;
53421;SDS011;39319;52.944;5.928;2022-07-24T00:20:05;7.72;;;5.90;;
53421;SDS011;39319;52.944;5.928;2022-07-24T00:22:32;8.07;;;5.80;;
53421;SDS011;39319;52.944;5.928;2022-07-24T00:24:58;9.60;;;5.97;;
53421;SDS011;39319;52.944;5.928;2022-07-24T00:27:23;8.33;;;6.00;;
53421;SDS011;39319;52.944;5.928;2022-07-24T00:29:49;9.30;;;6.50;;
53421;SDS011;39319;52.944;5.928;2022-07-24T00:32:15;8.85;;;6.20;;
53421;SDS011;39319;52.944;5.928;2022-07-24T00:34:41;9.57;;;6.82;;
53421;SDS011;39319;52.944;5.928;2022-07-24T00:37:06;8.50;;;6.20;;
53421;SDS011;39319;52.944;5.928;2022-07-24T00:39:33;8.45;;;6.15;;
53421;SDS011;39319;52.944;5.928;2022-07-24T00:41:59;8.18;;;6.32;;
53421;SDS011;39319;52.944;5.928;2022-07-24T00:44:25;9.25;;;6.47;;
53421;SDS011;39319;52.944;5.928;2022-07-24T00:46:50;9.65;;;7.13;;
53421;SDS011;39319;52.944;5.928;2022-07-24T00:49:17;9.33;;;6.90;;
53421;SDS011;39319;52.944;5.928;2022-07-24T00:51:44;8.60;;;6.50;;
53421;SDS011;39319;52.944;5.928;2022-07-24T00:54:12;7.78;;;6.47;;
53421;SDS011;39319;52.944;5.928;2022-07-24T00:56:43;8.88;;;7.15;;
53421;SDS011;39319;52.944;5.928;2022-07-24T00:59:10;9.02;;;7.18;;
53421;SDS011;39319;52.944;5.928;2022-07-24T01:01:35;10.52;;;7.53;;
53421;SDS011;39319;52.944;5.928;2022-07-24T01:04:01;10.97;;;7.37;;
53421;SDS011;39319;52.944;5.928;2022-07-24T01:06:27;8.50;;;7.25;;
53421;SDS011;39319;52.944;5.928;2022-07-24T01:08:53;9.85;;;7.70;;
53421;SDS011;39319;52.944;5.928;2022-07-24T01:11:19;10.95;;;7.85;;
53421;SDS011;39319;52.944;5.928;2022-07-24T01:13:49;9.88;;;7.78;;
53421;SDS011;39319;52.944;5.928;2022-07-24T01:16:15;9.85;;;7.95;;
53421;SDS011;39319;52.944;5.928;2022-07-24T01:18:41;10.48;;;7.85;;
53421;SDS011;39319;52.944;5.928;2022-07-24T01:21:07;9.88;;;8.00;;
53421;SDS011;39319;52.944;5.928;2022-07-24T01:23:33;11.07;;;8.32;;
53421;SDS011;39319;52.944;5.928;2022-07-24T01:26:00;11.57;;;8.20;;
53421;SDS011;39319;52.944;5.928;2022-07-24T01:28:26;11.18;;;8.05;;
53421;SDS011;39319;52.944;5.928;2022-07-24T01:30:52;10.27;;;8.23;;
53421;SDS011;39319;52.944;5.928;2022-07-24T01:33:18;10.63;;;8.30;;
53421;SDS011;39319;52.944;5.928;2022-07-24T01:35:45;11.00;;;8.00;;
53421;SDS011;39319;52.944;5.928;2022-07-24T01:38:11;10.02;;;7.85;;
53421;SDS011;39319;52.944;5.928;2022-07-24T01:40:38;11.57;;;8.35;;
53421;SDS011;39319;52.944;5.928;2022-07-24T01:43:04;9.75;;;8.00;;
53421;SDS011;39319;52.944;5.928;2022-07-24T01:45:30;11.80;;;8.70;;
53421;SDS011;39319;52.944;5.928;2022-07-24T01:47:57;11.13;;;8.70;;
53421;SDS011;39319;52.944;5.928;2022-07-24T01:50:23;9.80;;;8.50;;
53421;SDS011;39319;52.944;5.928;2022-07-24T01:52:49;10.68;;;8.35;;
53421;SDS011;39319;52.944;5.928;2022-07-24T01:55:14;11.93;;;8.60;;
53421;SDS011;39319;52.944;5.928;2022-07-24T01:57:40;10.02;;;8.45;;
53421;SDS011;39319;52.944;5.928;2022-07-24T02:00:06;11.50;;;8.63;;
53421;SDS011;39319;52.944;5.928;2022-07-24T02:02:37;12.38;;;8.98;;
53421;SDS011;39319;52.944;5.928;2022-07-24T02:05:02;11.10;;;9.20;;
53421;SDS011;39319;52.944;5.928;2022-07-24T02:07:28;10.60;;;8.70;;
53421;SDS011;39319;52.944;5.928;2022-07-24T02:09:54;10.05;;;8.40;;
53421;SDS011;39319;52.944;5.928;2022-07-24T02:12:19;11.98;;;9.45;;
53421;SDS011;39319;52.944;5.928;2022-07-24T02:14:45;12.25;;;8.88;;
53421;SDS011;39319;52.944;5.928;2022-07-24T02:17:11;10.75;;;8.40;;
53421;SDS011;39319;52.944;5.928;2022-07-24T02:19:36;11.65;;;9.15;;
53421;SDS011;39319;52.944;5.928;2022-07-24T02:22:02;11.68;;;9.20;;
53421;SDS011;39319;52.944;5.928;2022-07-24T02:24:28;11.95;;;9.10;;
53421;SDS011;39319;52.944;5.928;2022-07-24T02:26:54;11.77;;;9.45;;
53421;SDS011;39319;52.944;5.928;2022-07-24T02:29:20;11.75;;;9.07;;
53421;SDS011;39319;52.944;5.928;2022-07-24T02:31:46;11.32;;;9.20;;
53421;SDS011;39319;52.944;5.928;2022-07-24T02:34:12;10.75;;;8.95;;
53421;SDS011;39319;52.944;5.928;2022-07-24T02:36:40;11.23;;;9.50;;
53421;SDS011;39319;52.944;5.928;2022-07-24T02:39:06;11.43;;;9.23;;
53421;SDS011;39319;52.944;5.928;2022-07-24T02:41:32;11.37;;;8.80;;
53421;SDS011;39319;52.944;5.928;2022-07-24T02:43:58;11.10;;;8.75;;
53421;SDS011;39319;52.944;5.928;2022-07-24T02:46:24;11.75;;;9.02;;
53421;SDS011;39319;52.944;5.928;2022-07-24T02:48:50;11.77;;;8.88;;
53421;SDS011;39319;52.944;5.928;2022-07-24T02:51:16;11.00;;;9.20;;
53421;SDS011;39319;52.944;5.928;2022-07-24T02:53:42;11.05;;;9.15;;
53421;SDS011;39319;52.944;5.928;2022-07-24T02:56:07;11.70;;;9.40;;
53421;SDS011;39319;52.944;5.928;2022-07-24T02:58:33;11.10;;;9.48;;
53421;SDS011;39319;52.944;5.928;2022-07-24T03:01:00;10.57;;;8.95;;
53421;SDS011;39319;52.944;5.928;2022-07-24T03:03:28;11.85;;;9.60;;
53421;SDS011;39319;52.944;5.928;2022-07-24T03:05:54;12.07;;;9.15;;
53421;SDS011;39319;52.944;5.928;2022-07-24T03:08:20;12.70;;;9.40;;
53421;SDS011;39319;52.944;5.928;2022-07-24T03:10:46;11.43;;;9.90;;
53421;SDS011;39319;52.944;5.928;2022-07-24T03:13:15;11.43;;;9.20;;
53421;SDS011;39319;52.944;5.928;2022-07-24T03:15:41;11.57;;;9.50;;
53421;SDS011;39319;52.944;5.928;2022-07-24T03:18:07;12.45;;;9.65;;
53421;SDS011;39319;52.944;5.928;2022-07-24T03:20:33;13.43;;;9.80;;
53421;SDS011;39319;52.944;5.928;2022-07-24T03:22:59;11.27;;;9.13;;
53421;SDS011;39319;52.944;5.928;2022-07-24T03:25:25;13.48;;;10.20;;
53421;SDS011;39319;52.944;5.928;2022-07-24T03:27:51;12.90;;;9.75;;
53421;SDS011;39319;52.944;5.928;2022-07-24T03:30:17;11.68;;;9.75;;
53421;SDS011;39319;52.944;5.928;2022-07-24T03:32:43;13.00;;;10.65;;
53421;SDS011;39319;52.944;5.928;2022-07-24T03:35:10;12.75;;;10.43;;
53421;SDS011;39319;52.944;5.928;2022-07-24T03:37:36;13.63;;;9.90;;
53421;SDS011;39319;52.944;5.928;2022-07-24T03:40:02;12.20;;;10.05;;
53421;SDS011;39319;52.944;5.928;2022-07-24T03:42:29;13.05;;;9.40;;
53421;SDS011;39319;52.944;5.928;2022-07-24T03:44:55;11.73;;;9.68;;
53421;SDS011;39319;52.944;5.928;2022-07-24T03:47:21;11.30;;;9.25;;
53421;SDS011;39319;52.944;5.928;2022-07-24T03:49:46;10.70;;;9.18;;
53421;SDS011;39319;52.944;5.928;2022-07-24T03:52:12;11.90;;;10.05;;
53421;SDS011;39319;52.944;5.928;2022-07-24T03:54:38;11.95;;;9.20;;
53421;SDS011;39319;52.944;5.928;2022-07-24T03:57:03;11.03;;;9.37;;
53421;SDS011;39319;52.944;5.928;2022-07-24T03:59:30;12.00;;;9.88;;
53421;SDS011;39319;52.944;5.928;2022-07-24T04:01:55;13.27;;;9.95;;
53421;SDS011;39319;52.944;5.928;2022-07-24T04:04:24;13.43;;;9.95;;
53421;SDS011;39319;52.944;5.928;2022-07-24T04:06:52;11.98;;;10.02;;
53421;SDS011;39319;52.944;5.928;2022-07-24T04:09:18;12.65;;;9.65;;
53421;SDS011;39319;52.944;5.928;2022-07-24T04:11:44;12.32;;;10.00;;
53421;SDS011;39319;52.944;5.928;2022-07-24T04:14:10;10.88;;;9.43;;
53421;SDS011;39319;52.944;5.928;2022-07-24T04:16:36;11.73;;;9.73;;
53421;SDS011;39319;52.944;5.928;2022-07-24T04:19:02;12.25;;;10.50;;
53421;SDS011;39319;52.944;5.928;2022-07-24T04:21:28;12.80;;;10.38;;
53421;SDS011;39319;52.944;5.928;2022-07-24T04:23:53;12.67;;;10.07;;
53421;SDS011;39319;52.944;5.928;2022-07-24T04:26:19;12.80;;;10.23;;
53421;SDS011;39319;52.944;5.928;2022-07-24T04:28:45;12.50;;;10.30;;
53421;SDS011;39319;52.944;5.928;2022-07-24T04:31:11;14.67;;;10.67;;
53421;SDS011;39319;52.944;5.928;2022-07-24T04:33:37;13.15;;;10.50;;
53421;SDS011;39319;52.944;5.928;2022-07-24T04:36:03;13.50;;;10.90;;
53421;SDS011;39319;52.944;5.928;2022-07-24T04:38:32;13.32;;;10.90;;
53421;SDS011;39319;52.944;5.928;2022-07-24T04:40:59;13.73;;;10.90;;
53421;SDS011;39319;52.944;5.928;2022-07-24T04:43:25;13.65;;;11.15;;
53421;SDS011;39319;52.944;5.928;2022-07-24T04:45:54;15.60;;;10.98;;
53421;SDS011;39319;52.944;5.928;2022-07-24T04:48:19;13.60;;;10.80;;
53421;SDS011;39319;52.944;5.928;2022-07-24T04:50:46;14.57;;;10.90;;
53421;SDS011;39319;52.944;5.928;2022-07-24T04:53:11;13.63;;;10.83;;
53421;SDS011;39319;52.944;5.928;2022-07-24T04:55:37;13.60;;;11.13;;
53421;SDS011;39319;52.944;5.928;2022-07-24T04:58:03;13.05;;;11.35;;
53421;SDS011;39319;52.944;5.928;2022-07-24T05:00:29;15.07;;;11.90;;
53421;SDS011;39319;52.944;5.928;2022-07-24T05:02:55;14.68;;;11.77;;
53421;SDS011;39319;52.944;5.928;2022-07-24T05:05:21;14.70;;;12.02;;
53421;SDS011;39319;52.944;5.928;2022-07-24T05:07:47;14.27;;;11.50;;
53421;SDS011;39319;52.944;5.928;2022-07-24T05:10:13;14.10;;;11.45;;
53421;SDS011;39319;52.944;5.928;2022-07-24T05:12:39;15.98;;;12.45;;
53421;SDS011;39319;52.944;5.928;2022-07-24T05:15:05;15.03;;;11.70;;
53421;SDS011;39319;52.944;5.928;2022-07-24T05:17:33;15.50;;;12.02;;
53421;SDS011;39319;52.944;5.928;2022-07-24T05:20:01;15.35;;;12.07;;
53421;SDS011;39319;52.944;5.928;2022-07-24T05:22:28;13.43;;;11.68;;
53421;SDS011;39319;52.944;5.928;2022-07-24T05:24:54;19.15;;;12.38;;
53421;SDS011;39319;52.944;5.928;2022-07-24T05:27:19;14.77;;;12.38;;
53421;SDS011;39319;52.944;5.928;2022-07-24T05:29:48;14.45;;;12.20;;
53421;SDS011;39319;52.944;5.928;2022-07-24T05:32:13;16.07;;;12.90;;
53421;SDS011;39319;52.944;5.928;2022-07-24T05:34:39;15.70;;;12.40;;
53421;SDS011;39319;52.944;5.928;2022-07-24T05:37:05;16.50;;;12.65;;
53421;SDS011;39319;52.944;5.928;2022-07-24T05:39:34;16.77;;;13.07;;
53421;SDS011;39319;52.944;5.928;2022-07-24T05:42:00;16.95;;;13.57;;
53421;SDS011;39319;52.944;5.928;2022-07-24T05:44:26;17.45;;;13.40;;
53421;SDS011;39319;52.944;5.928;2022-07-24T05:46:54;16.08;;;14.18;;
53421;SDS011;39319;52.944;5.928;2022-07-24T05:49:20;16.43;;;13.17;;
53421;SDS011;39319;52.944;5.928;2022-07-24T05:51:45;15.87;;;14.07;;
53421;SDS011;39319;52.944;5.928;2022-07-24T05:54:11;15.83;;;13.60;;
53421;SDS011;39319;52.944;5.928;2022-07-24T05:56:37;16.17;;;13.87;;
53421;SDS011;39319;52.944;5.928;2022-07-24T05:59:02;17.17;;;14.43;;
53421;SDS011;39319;52.944;5.928;2022-07-24T06:01:28;18.73;;;14.80;;
53421;SDS011;39319;52.944;5.928;2022-07-24T06:03:54;18.70;;;15.33;;
53421;SDS011;39319;52.944;5.928;2022-07-24T06:06:20;20.60;;;15.73;;
53421;SDS011;39319;52.944;5.928;2022-07-24T06:08:45;18.65;;;15.88;;
53421;SDS011;39319;52.944;5.928;2022-07-24T06:11:11;21.35;;;16.77;;
53421;SDS011;39319;52.944;5.928;2022-07-24T06:13:42;20.23;;;17.23;;
53421;SDS011;39319;52.944;5.928;2022-07-24T06:16:08;19.55;;;16.85;;
53421;SDS011;39319;52.944;5.928;2022-07-24T06:18:34;19.40;;;15.90;;
53421;SDS011;39319;52.944;5.928;2022-07-24T06:21:00;19.73;;;17.57;;
53421;SDS011;39319;52.944;5.928;2022-07-24T06:23:26;22.57;;;18.57;;
53421;SDS011;39319;52.944;5.928;2022-07-24T06:25:52;21.73;;;19.10;;
53421;SDS011;39319;52.944;5.928;2022-07-24T06:28:17;19.83;;;17.73;;
53421;SDS011;39319;52.944;5.928;2022-07-24T06:30:45;22.90;;;18.50;;
53421;SDS011;39319;52.944;5.928;2022-07-24T06:33:10;22.13;;;18.23;;
53421;SDS011;39319;52.944;5.928;2022-07-24T06:35:36;22.13;;;18.10;;
53421;SDS011;39319;52.944;5.928;2022-07-24T06:38:04;24.17;;;19.13;;
53421;SDS011;39319;52.944;5.928;2022-07-24T06:40:30;22.60;;;17.57;;
53421;SDS011;39319;52.944;5.928;2022-07-24T06:42:56;22.17;;;18.50;;
53421;SDS011;39319;52.944;5.928;2022-07-24T06:45:22;21.90;;;17.63;;
53421;SDS011;39319;52.944;5.928;2022-07-24T06:47:47;21.88;;;16.95;;
53421;SDS011;39319;52.944;5.928;2022-07-24T06:50:13;20.83;;;17.50;;
53421;SDS011;39319;52.944;5.928;2022-07-24T06:52:40;21.90;;;17.55;;
53421;SDS011;39319;52.944;5.928;2022-07-24T06:55:06;22.40;;;17.90;;
53421;SDS011;39319;52.944;5.928;2022-07-24T06:57:33;19.05;;;15.75;;
53421;SDS011;39319;52.944;5.928;2022-07-24T07:00:06;19.77;;;16.52;;
53421;SDS011;39319;52.944;5.928;2022-07-24T07:02:33;18.58;;;15.90;;
53421;SDS011;39319;52.944;5.928;2022-07-24T07:04:59;20.83;;;15.18;;
53421;SDS011;39319;52.944;5.928;2022-07-24T07:07:25;19.95;;;15.40;;
53421;SDS011;39319;52.944;5.928;2022-07-24T07:09:50;19.17;;;14.40;;
53421;SDS011;39319;52.944;5.928;2022-07-24T07:12:17;18.67;;;14.05;;
53421;SDS011;39319;52.944;5.928;2022-07-24T07:14:42;20.03;;;13.37;;
53421;SDS011;39319;52.944;5.928;2022-07-24T07:17:08;18.23;;;13.07;;
53421;SDS011;39319;52.944;5.928;2022-07-24T07:19:33;16.53;;;12.70;;
53421;SDS011;39319;52.944;5.928;2022-07-24T07:21:59;16.57;;;13.23;;
53421;SDS011;39319;52.944;5.928;2022-07-24T07:24:25;18.30;;;13.57;;
53421;SDS011;39319;52.944;5.928;2022-07-24T07:26:51;16.67;;;12.18;;
53421;SDS011;39319;52.944;5.928;2022-07-24T07:29:17;16.95;;;12.43;;
53421;SDS011;39319;52.944;5.928;2022-07-24T07:31:43;15.88;;;12.35;;
53421;SDS011;39319;52.944;5.928;2022-07-24T07:34:12;15.40;;;11.57;;
53421;SDS011;39319;52.944;5.928;2022-07-24T07:36:37;15.90;;;12.70;;
53421;SDS011;39319;52.944;5.928;2022-07-24T07:39:03;17.87;;;11.90;;
53421;SDS011;39319;52.944;5.928;2022-07-24T07:41:29;15.77;;;12.20;;
53421;SDS011;39319;52.944;5.928;2022-07-24T07:43:54;17.23;;;12.03;;
53421;SDS011;39319;52.944;5.928;2022-07-24T07:46:23;18.02;;;11.43;;
53421;SDS011;39319;52.944;5.928;2022-07-24T07:48:50;16.55;;;12.38;;
53421;SDS011;39319;52.944;5.928;2022-07-24T07:51:15;18.10;;;11.60;;
53421;SDS011;39319;52.944;5.928;2022-07-24T07:53:41;15.23;;;10.93;;
53421;SDS011;39319;52.944;5.928;2022-07-24T07:56:07;14.43;;;10.47;;
53421;SDS011;39319;52.944;5.928;2022-07-24T07:58:33;15.10;;;10.37;;
53421;SDS011;39319;52.944;5.928;2022-07-24T08:00:59;15.93;;;10.57;;
53421;SDS011;39319;52.944;5.928;2022-07-24T08:03:25;13.68;;;9.30;;
53421;SDS011;39319;52.944;5.928;2022-07-24T08:05:51;14.25;;;9.23;;
53421;SDS011;39319;52.944;5.928;2022-07-24T08:08:17;13.90;;;8.95;;
53421;SDS011;39319;52.944;5.928;2022-07-24T08:10:43;13.75;;;8.20;;
53421;SDS011;39319;52.944;5.928;2022-07-24T08:13:08;12.25;;;8.13;;
53421;SDS011;39319;52.944;5.928;2022-07-24T08:15:34;11.68;;;7.47;;
53421;SDS011;39319;52.944;5.928;2022-07-24T08:18:00;12.25;;;7.20;;
53421;SDS011;39319;52.944;5.928;2022-07-24T08:20:28;12.68;;;7.00;;
53421;SDS011;39319;52.944;5.928;2022-07-24T08:22:54;9.90;;;5.82;;
53421;SDS011;39319;52.944;5.928;2022-07-24T08:25:21;10.32;;;5.35;;
53421;SDS011;39319;52.944;5.928;2022-07-24T08:27:49;9.53;;;5.30;;
53421;SDS011;39319;52.944;5.928;2022-07-24T08:30:15;9.70;;;5.50;;
53421;SDS011;39319;52.944;5.928;2022-07-24T08:32:41;7.90;;;5.07;;
53421;SDS011;39319;52.944;5.928;2022-07-24T08:35:08;8.93;;;5.00;;
53421;SDS011;39319;52.944;5.928;2022-07-24T08:37:40;8.95;;;5.00;;
53421;SDS011;39319;52.944;5.928;2022-07-24T08:40:07;9.15;;;4.72;;
53421;SDS011;39319;52.944;5.928;2022-07-24T08:42:35;10.82;;;5.15;;
53421;SDS011;39319;52.944;5.928;2022-07-24T08:45:01;8.10;;;4.63;;
53421;SDS011;39319;52.944;5.928;2022-07-24T08:47:29;8.73;;;4.32;;
53421;SDS011;39319;52.944;5.928;2022-07-24T08:49:57;7.37;;;3.93;;
53421;SDS011;39319;52.944;5.928;2022-07-24T08:52:26;8.20;;;3.70;;
53421;SDS011;39319;52.944;5.928;2022-07-24T08:54:52;7.80;;;3.40;;
53421;SDS011;39319;52.944;5.928;2022-07-24T08:57:20;6.75;;;3.50;;
53421;SDS011;39319;52.944;5.928;2022-07-24T08:59:47;7.78;;;3.55;;
53421;SDS011;39319;52.944;5.928;2022-07-24T09:02:13;8.17;;;3.67;;
53421;SDS011;39319;52.944;5.928;2022-07-24T09:04:41;7.35;;;3.20;;
53421;SDS011;39319;52.944;5.928;2022-07-24T09:07:10;7.45;;;3.50;;
53421;SDS011;39319;52.944;5.928;2022-07-24T09:09:39;6.60;;;3.10;;
53421;SDS011;39319;52.944;5.928;2022-07-24T09:14:37;8.88;;;3.30;;
53421;SDS011;39319;52.944;5.928;2022-07-24T09:17:06;8.85;;;3.70;;
53421;SDS011;39319;52.944;5.928;2022-07-24T09:19:57;6.25;;;3.17;;
53421;SDS011;39319;52.944;5.928;2022-07-24T09:27:56;7.32;;;3.15;;
53421;SDS011;39319;52.944;5.928;2022-07-24T09:35:24;7.15;;;3.40;;
53421;SDS011;39319;52.944;5.928;2022-07-24T09:38:05;8.60;;;4.00;;
53421;SDS011;39319;52.944;5.928;2022-07-24T09:40:33;9.75;;;3.75;;
53421;SDS011;39319;52.944;5.928;2022-07-24T09:43:20;8.30;;;4.00;;
53421;SDS011;39319;52.944;5.928;2022-07-24T09:46:02;7.20;;;3.60;;
53421;SDS011;39319;52.944;5.928;2022-07-24T09:48:34;7.85;;;3.58;;
53421;SDS011;39319;52.944;5.928;2022-07-24T09:51:27;14.40;;;4.38;;
53421;SDS011;39319;52.944;5.928;2022-07-24T09:53:55;7.13;;;3.38;;
53421;SDS011;39319;52.944;5.928;2022-07-24T09:56:22;8.52;;;3.40;;
53421;SDS011;39319;52.944;5.928;2022-07-24T09:58:50;6.50;;;3.55;;
53421;SDS011;39319;52.944;5.928;2022-07-24T10:01:25;7.22;;;3.13;;
53421;SDS011;39319;52.944;5.928;2022-07-24T10:03:53;12.90;;;3.47;;
53421;SDS011;39319;52.944;5.928;2022-07-24T10:06:22;7.85;;;3.30;;
53421;SDS011;39319;52.944;5.928;2022-07-24T10:08:51;9.88;;;3.78;;
53421;SDS011;39319;52.944;5.928;2022-07-24T10:11:19;7.75;;;3.20;;
53421;SDS011;39319;52.944;5.928;2022-07-24T10:13:48;6.45;;;2.80;;
53421;SDS011;39319;52.944;5.928;2022-07-24T10:19:02;7.30;;;3.15;;
53421;SDS011;39319;52.944;5.928;2022-07-24T10:24:06;6.72;;;3.35;;
53421;SDS011;39319;52.944;5.928;2022-07-24T10:26:47;6.78;;;3.33;;
53421;SDS011;39319;52.944;5.928;2022-07-24T10:29:19;9.90;;;3.40;;
53421;SDS011;39319;52.944;5.928;2022-07-24T10:31:48;6.68;;;3.28;;
53421;SDS011;39319;52.944;5.928;2022-07-24T10:37:20;7.00;;;2.90;;
53421;SDS011;39319;52.944;5.928;2022-07-24T10:56:19;7.32;;;2.60;;
53421;SDS011;39319;52.944;5.928;2022-07-24T10:58:51;8.60;;;2.90;;
53421;SDS011;39319;52.944;5.928;2022-07-24T11:01:48;6.63;;;2.47;;
53421;SDS011;39319;52.944;5.928;2022-07-24T11:09:17;6.03;;;2.67;;
53421;SDS011;39319;52.944;5.928;2022-07-24T11:14:19;8.23;;;2.90;;
53421;SDS011;39319;52.944;5.928;2022-07-24T11:16:49;5.97;;;2.83;;
53421;SDS011;39319;52.944;5.928;2022-07-24T11:21:41;7.57;;;2.60;;
53421;SDS011;39319;52.944;5.928;2022-07-24T11:26:47;8.63;;;2.90;;
53421;SDS011;39319;52.944;5.928;2022-07-24T11:29:17;5.70;;;2.60;;
53421;SDS011;39319;52.944;5.928;2022-07-24T11:31:43;7.00;;;2.88;;
53421;SDS011;39319;52.944;5.928;2022-07-24T11:34:14;6.38;;;2.28;;
53421;SDS011;39319;52.944;5.928;2022-07-24T11:36:41;6.65;;;2.50;;
53421;SDS011;39319;52.944;5.928;2022-07-24T11:39:08;6.32;;;2.60;;
53421;SDS011;39319;52.944;5.928;2022-07-24T11:41:44;7.17;;;2.73;;
53421;SDS011;39319;52.944;5.928;2022-07-24T11:44:29;8.50;;;3.10;;
53421;SDS011;39319;52.944;5.928;2022-07-24T11:47:00;5.75;;;2.42;;
53421;SDS011;39319;52.944;5.928;2022-07-24T11:49:40;6.05;;;2.67;;
53421;SDS011;39319;52.944;5.928;2022-07-24T11:52:07;7.43;;;2.65;;
53421;SDS011;39319;52.944;5.928;2022-07-24T11:54:39;6.13;;;2.60;;
53421;SDS011;39319;52.944;5.928;2022-07-24T11:57:14;5.72;;;2.95;;
53421;SDS011;39319;52.944;5.928;2022-07-24T11:59:46;5.72;;;2.42;;
53421;SDS011;39319;52.944;5.928;2022-07-24T12:02:13;5.78;;;2.65;;
53421;SDS011;39319;52.944;5.928;2022-07-24T12:04:40;6.10;;;2.40;;
53421;SDS011;39319;52.944;5.928;2022-07-24T12:07:09;5.65;;;2.33;;
53421;SDS011;39319;52.944;5.928;2022-07-24T12:10:10;7.28;;;2.83;;
53421;SDS011;39319;52.944;5.928;2022-07-24T12:12:31;6.13;;;2.60;;
53421;SDS011;39319;52.944;5.928;2022-07-24T12:15:05;5.60;;;2.38;;
53421;SDS011;39319;52.944;5.928;2022-07-24T12:17:34;7.03;;;2.90;;
53421;SDS011;39319;52.944;5.928;2022-07-24T12:20:21;7.80;;;2.60;;
53421;SDS011;39319;52.944;5.928;2022-07-24T12:22:48;5.85;;;2.55;;
53421;SDS011;39319;52.944;5.928;2022-07-24T12:25:13;5.15;;;2.45;;
53421;SDS011;39319;52.944;5.928;2022-07-24T12:27:43;5.88;;;2.70;;
53421;SDS011;39319;52.944;5.928;2022-07-24T12:30:20;5.93;;;2.67;;
53421;SDS011;39319;52.944;5.928;2022-07-24T12:32:52;5.78;;;2.33;;
53421;SDS011;39319;52.944;5.928;2022-07-24T12:35:19;7.10;;;2.55;;
53421;SDS011;39319;52.944;5.928;2022-07-24T12:37:45;6.53;;;2.22;;
53421;SDS011;39319;52.944;5.928;2022-07-24T12:40:23;5.43;;;2.33;;
53421;SDS011;39319;52.944;5.928;2022-07-24T12:45:42;7.18;;;2.65;;
53421;SDS011;39319;52.944;5.928;2022-07-24T12:50:34;5.90;;;2.33;;
53421;SDS011;39319;52.944;5.928;2022-07-24T12:53:07;7.78;;;2.40;;
53421;SDS011;39319;52.944;5.928;2022-07-24T12:55:34;7.57;;;2.53;;
53421;SDS011;39319;52.944;5.928;2022-07-24T12:58:01;6.00;;;2.40;;
53421;SDS011;39319;52.944;5.928;2022-07-24T13:00:29;5.90;;;2.37;;
53421;SDS011;39319;52.944;5.928;2022-07-24T13:02:55;5.78;;;2.47;;
53421;SDS011;39319;52.944;5.928;2022-07-24T13:05:35;6.82;;;2.40;;
53421;SDS011;39319;52.944;5.928;2022-07-24T13:08:03;5.23;;;2.47;;
53421;SDS011;39319;52.944;5.928;2022-07-24T13:10:29;5.68;;;2.30;;
53421;SDS011;39319;52.944;5.928;2022-07-24T13:12:55;5.93;;;2.42;;
53421;SDS011;39319;52.944;5.928;2022-07-24T13:15:27;6.22;;;2.30;;
53421;SDS011;39319;52.944;5.928;2022-07-24T13:17:53;7.60;;;2.80;;
53421;SDS011;39319;52.944;5.928;2022-07-24T13:20:21;6.67;;;2.37;;
53421;SDS011;39319;52.944;5.928;2022-07-24T13:22:47;5.90;;;2.50;;
53421;SDS011;39319;52.944;5.928;2022-07-24T13:25:13;6.30;;;2.40;;
53421;SDS011;39319;52.944;5.928;2022-07-24T13:27:38;4.90;;;2.25;;
53421;SDS011;39319;52.944;5.928;2022-07-24T13:30:04;5.65;;;2.65;;
53421;SDS011;39319;52.944;5.928;2022-07-24T13:32:33;7.05;;;2.83;;
53421;SDS011;39319;52.944;5.928;2022-07-24T13:35:02;5.78;;;2.60;;
53421;SDS011;39319;52.944;5.928;2022-07-24T13:37:29;7.53;;;2.72;;
53421;SDS011;39319;52.944;5.928;2022-07-24T13:39:55;5.63;;;2.50;;
53421;SDS011;39319;52.944;5.928;2022-07-24T13:42:21;5.47;;;2.70;;
53421;SDS011;39319;52.944;5.928;2022-07-24T13:44:49;8.47;;;2.67;;
53421;SDS011;39319;52.944;5.928;2022-07-24T13:47:15;4.95;;;2.35;;
53421;SDS011;39319;52.944;5.928;2022-07-24T13:49:41;6.07;;;2.50;;
53421;SDS011;39319;52.944;5.928;2022-07-24T13:52:06;6.28;;;2.50;;
53421;SDS011;39319;52.944;5.928;2022-07-24T13:54:32;6.43;;;2.63;;
53421;SDS011;39319;52.944;5.928;2022-07-24T13:56:58;5.00;;;2.40;;
53421;SDS011;39319;52.944;5.928;2022-07-24T13:59:24;6.00;;;2.27;;
53421;SDS011;39319;52.944;5.928;2022-07-24T14:01:49;4.57;;;2.30;;
53421;SDS011;39319;52.944;5.928;2022-07-24T14:04:15;6.30;;;2.42;;
53421;SDS011;39319;52.944;5.928;2022-07-24T14:06:41;5.93;;;2.50;;
53421;SDS011;39319;52.944;5.928;2022-07-24T14:09:06;5.20;;;2.30;;
53421;SDS011;39319;52.944;5.928;2022-07-24T14:11:33;5.45;;;2.33;;
53421;SDS011;39319;52.944;5.928;2022-07-24T14:13:59;7.30;;;2.30;;
53421;SDS011;39319;52.944;5.928;2022-07-24T14:16:25;5.05;;;2.42;;
53421;SDS011;39319;52.944;5.928;2022-07-24T14:18:51;5.90;;;2.47;;
53421;SDS011;39319;52.944;5.928;2022-07-24T14:21:19;6.13;;;2.50;;
53421;SDS011;39319;52.944;5.928;2022-07-24T14:23:44;6.60;;;2.30;;
53421;SDS011;39319;52.944;5.928;2022-07-24T14:26:10;5.27;;;2.40;;
53421;SDS011;39319;52.944;5.928;2022-07-24T14:28:35;5.88;;;2.30;;
53421;SDS011;39319;52.944;5.928;2022-07-24T14:31:01;7.18;;;2.50;;
53421;SDS011;39319;52.944;5.928;2022-07-24T14:33:27;5.53;;;2.50;;
53421;SDS011;39319;52.944;5.928;2022-07-24T14:35:53;5.57;;;2.55;;
53421;SDS011;39319;52.944;5.928;2022-07-24T14:38:18;5.97;;;2.50;;
53421;SDS011;39319;52.944;5.928;2022-07-24T14:40:44;7.93;;;2.50;;
53421;SDS011;39319;52.944;5.928;2022-07-24T14:43:10;6.57;;;2.43;;
53421;SDS011;39319;52.944;5.928;2022-07-24T14:45:36;6.50;;;2.53;;
53421;SDS011;39319;52.944;5.928;2022-07-24T14:48:04;7.97;;;2.50;;
53421;SDS011;39319;52.944;5.928;2022-07-24T14:50:30;9.43;;;2.45;;
53421;SDS011;39319;52.944;5.928;2022-07-24T14:52:56;6.27;;;2.30;;
53421;SDS011;39319;52.944;5.928;2022-07-24T14:55:22;5.40;;;2.30;;
53421;SDS011;39319;52.944;5.928;2022-07-24T14:57:48;7.32;;;2.20;;
53421;SDS011;39319;52.944;5.928;2022-07-24T15:00:14;6.43;;;2.40;;
53421;SDS011;39319;52.944;5.928;2022-07-24T15:02:42;6.43;;;1.85;;
53421;SDS011;39319;52.944;5.928;2022-07-24T15:05:08;5.40;;;2.40;;
53421;SDS011;39319;52.944;5.928;2022-07-24T15:07:33;4.70;;;2.10;;
53421;SDS011;39319;52.944;5.928;2022-07-24T15:09:59;4.72;;;2.15;;
53421;SDS011;39319;52.944;5.928;2022-07-24T15:12:25;5.60;;;2.20;;
53421;SDS011;39319;52.944;5.928;2022-07-24T15:14:51;5.17;;;2.20;;
53421;SDS011;39319;52.944;5.928;2022-07-24T15:17:17;5.50;;;2.15;;
53421;SDS011;39319;52.944;5.928;2022-07-24T15:19:43;5.28;;;2.22;;
53421;SDS011;39319;52.944;5.928;2022-07-24T15:22:09;5.57;;;2.10;;
53421;SDS011;39319;52.944;5.928;2022-07-24T15:24:35;8.03;;;2.13;;
53421;SDS011;39319;52.944;5.928;2022-07-24T15:27:00;5.17;;;2.37;;
53421;SDS011;39319;52.944;5.928;2022-07-24T15:29:26;5.57;;;2.10;;
53421;SDS011;39319;52.944;5.928;2022-07-24T15:31:52;4.50;;;2.13;;
53421;SDS011;39319;52.944;5.928;2022-07-24T15:34:17;5.53;;;2.20;;